sensor_id;sensor_type;location;lat;lon;timestamp;P1;durP1;ratioP1;P2;durP2;ratioP2
37781;SDS011;23621;50.878;4.584;2023-02-19T00:01:21;4.53;;;3.85;;
37781;SDS011;23621;50.878;4.584;2023-02-19T00:04:15;4.55;;;4.10;;
37781;SDS011;23621;50.878;4.584;2023-02-19T00:06:47;5.13;;;3.65;;
37781;SDS011;23621;50.878;4.584;2023-02-19T00:09:15;5.00;;;3.92;;
37781;SDS011;23621;50.878;4.584;2023-02-19T00:11:43;4.55;;;3.88;;
37781;SDS011;23621;50.878;4.584;2023-02-19T00:14:16;6.70;;;4.55;;
37781;SDS011;23621;50.878;4.584;2023-02-19T00:16:46;7.40;;;4.60;;
37781;SDS011;23621;50.878;4.584;2023-02-19T00:19:18;5.18;;;4.38;;
37781;SDS011;23621;50.878;4.584;2023-02-19T00:21:46;6.07;;;5.10;;
37781;SDS011;23621;50.878;4.584;2023-02-19T00:24:16;6.20;;;5.55;;
37781;SDS011;23621;50.878;4.584;2023-02-19T00:26:43;6.75;;;5.32;;
37781;SDS011;23621;50.878;4.584;2023-02-19T00:29:13;7.95;;;5.55;;
37781;SDS011;23621;50.878;4.584;2023-02-19T00:31:42;7.78;;;5.47;;
37781;SDS011;23621;50.878;4.584;2023-02-19T00:34:10;7.20;;;5.90;;
37781;SDS011;23621;50.878;4.584;2023-02-19T00:36:39;8.45;;;5.50;;
37781;SDS011;23621;50.878;4.584;2023-02-19T00:39:07;9.02;;;5.47;;
37781;SDS011;23621;50.878;4.584;2023-02-19T00:41:36;9.02;;;5.90;;
37781;SDS011;23621;50.878;4.584;2023-02-19T00:44:04;7.22;;;5.68;;
37781;SDS011;23621;50.878;4.584;2023-02-19T00:49:06;9.68;;;5.60;;
37781;SDS011;23621;50.878;4.584;2023-02-19T00:51:35;7.72;;;5.57;;
37781;SDS011;23621;50.878;4.584;2023-02-19T00:54:03;6.80;;;5.93;;
37781;SDS011;23621;50.878;4.584;2023-02-19T00:56:31;10.25;;;5.57;;
37781;SDS011;23621;50.878;4.584;2023-02-19T00:58:58;5.65;;;5.10;;
37781;SDS011;23621;50.878;4.584;2023-02-19T01:01:25;8.27;;;5.75;;
37781;SDS011;23621;50.878;4.584;2023-02-19T01:03:52;7.85;;;6.00;;
37781;SDS011;23621;50.878;4.584;2023-02-19T01:06:20;6.40;;;5.20;;
37781;SDS011;23621;50.878;4.584;2023-02-19T01:08:47;7.90;;;5.78;;
37781;SDS011;23621;50.878;4.584;2023-02-19T01:11:15;6.15;;;5.30;;
37781;SDS011;23621;50.878;4.584;2023-02-19T01:13:43;7.07;;;5.75;;
37781;SDS011;23621;50.878;4.584;2023-02-19T01:16:11;8.40;;;5.95;;
37781;SDS011;23621;50.878;4.584;2023-02-19T01:18:42;11.13;;;5.35;;
37781;SDS011;23621;50.878;4.584;2023-02-19T01:21:13;9.00;;;4.85;;
37781;SDS011;23621;50.878;4.584;2023-02-19T01:23:43;7.45;;;4.53;;
37781;SDS011;23621;50.878;4.584;2023-02-19T01:26:11;8.75;;;5.18;;
37781;SDS011;23621;50.878;4.584;2023-02-19T01:28:44;6.45;;;4.75;;
37781;SDS011;23621;50.878;4.584;2023-02-19T01:31:12;5.90;;;4.68;;
37781;SDS011;23621;50.878;4.584;2023-02-19T01:33:44;7.65;;;5.05;;
37781;SDS011;23621;50.878;4.584;2023-02-19T01:36:13;5.22;;;4.57;;
37781;SDS011;23621;50.878;4.584;2023-02-19T01:38:40;8.30;;;4.72;;
37781;SDS011;23621;50.878;4.584;2023-02-19T01:41:09;6.85;;;4.43;;
37781;SDS011;23621;50.878;4.584;2023-02-19T01:46:32;8.38;;;5.03;;
37781;SDS011;23621;50.878;4.584;2023-02-19T01:49:13;6.18;;;4.55;;
37781;SDS011;23621;50.878;4.584;2023-02-19T01:51:55;7.00;;;4.57;;
37781;SDS011;23621;50.878;4.584;2023-02-19T01:54:27;11.75;;;5.32;;
37781;SDS011;23621;50.878;4.584;2023-02-19T01:56:57;6.55;;;5.47;;
37781;SDS011;23621;50.878;4.584;2023-02-19T01:59:26;9.10;;;4.82;;
37781;SDS011;23621;50.878;4.584;2023-02-19T02:01:53;10.35;;;4.35;;
37781;SDS011;23621;50.878;4.584;2023-02-19T02:04:20;8.32;;;4.78;;
37781;SDS011;23621;50.878;4.584;2023-02-19T02:09:19;7.10;;;4.28;;
37781;SDS011;23621;50.878;4.584;2023-02-19T02:12:06;9.32;;;4.32;;
37781;SDS011;23621;50.878;4.584;2023-02-19T02:14:34;6.15;;;3.65;;
37781;SDS011;23621;50.878;4.584;2023-02-19T02:31:57;5.82;;;3.25;;
37781;SDS011;23621;50.878;4.584;2023-02-19T02:34:44;7.28;;;3.00;;
37781;SDS011;23621;50.878;4.584;2023-02-19T02:37:34;7.90;;;3.35;;
37781;SDS011;23621;50.878;4.584;2023-02-19T02:40:04;7.65;;;3.17;;
37781;SDS011;23621;50.878;4.584;2023-02-19T02:42:34;6.57;;;3.35;;
37781;SDS011;23621;50.878;4.584;2023-02-19T02:45:21;7.32;;;3.67;;
37781;SDS011;23621;50.878;4.584;2023-02-19T02:48:15;8.00;;;3.90;;
37781;SDS011;23621;50.878;4.584;2023-02-19T02:56:39;9.43;;;4.07;;
37781;SDS011;23621;50.878;4.584;2023-02-19T02:59:10;8.75;;;3.30;;
37781;SDS011;23621;50.878;4.584;2023-02-19T03:01:42;7.85;;;3.67;;
37781;SDS011;23621;50.878;4.584;2023-02-19T03:07:55;6.57;;;2.97;;
37781;SDS011;23621;50.878;4.584;2023-02-19T03:10:39;5.78;;;2.95;;
37781;SDS011;23621;50.878;4.584;2023-02-19T03:13:21;10.82;;;3.05;;
37781;SDS011;23621;50.878;4.584;2023-02-19T03:16:15;7.88;;;3.63;;
37781;SDS011;23621;50.878;4.584;2023-02-19T03:19:09;8.32;;;2.63;;
37781;SDS011;23621;50.878;4.584;2023-02-19T03:21:52;6.55;;;3.00;;
37781;SDS011;23621;50.878;4.584;2023-02-19T03:24:44;7.28;;;3.10;;
37781;SDS011;23621;50.878;4.584;2023-02-19T03:27:35;6.63;;;2.42;;
37781;SDS011;23621;50.878;4.584;2023-02-19T03:30:16;8.10;;;2.33;;
37781;SDS011;23621;50.878;4.584;2023-02-19T03:32:48;3.45;;;2.50;;
37781;SDS011;23621;50.878;4.584;2023-02-19T03:35:23;8.10;;;2.30;;
37781;SDS011;23621;50.878;4.584;2023-02-19T03:40:36;7.43;;;2.53;;
37781;SDS011;23621;50.878;4.584;2023-02-19T03:43:17;6.82;;;2.20;;
37781;SDS011;23621;50.878;4.584;2023-02-19T03:46:10;5.03;;;2.08;;
37781;SDS011;23621;50.878;4.584;2023-02-19T03:48:45;8.10;;;2.45;;
37781;SDS011;23621;50.878;4.584;2023-02-19T03:51:21;4.85;;;2.45;;
37781;SDS011;23621;50.878;4.584;2023-02-19T03:54:12;7.78;;;2.47;;
37781;SDS011;23621;50.878;4.584;2023-02-19T03:56:53;6.82;;;2.58;;
37781;SDS011;23621;50.878;4.584;2023-02-19T03:59:29;4.63;;;2.13;;
37781;SDS011;23621;50.878;4.584;2023-02-19T04:02:05;7.28;;;2.75;;
37781;SDS011;23621;50.878;4.584;2023-02-19T04:04:48;9.68;;;2.85;;
37781;SDS011;23621;50.878;4.584;2023-02-19T04:07:36;9.00;;;2.53;;
37781;SDS011;23621;50.878;4.584;2023-02-19T04:10:07;6.20;;;3.08;;
37781;SDS011;23621;50.878;4.584;2023-02-19T04:12:35;8.80;;;2.40;;
37781;SDS011;23621;50.878;4.584;2023-02-19T04:15:05;6.25;;;2.10;;
37781;SDS011;23621;50.878;4.584;2023-02-19T04:17:46;10.95;;;2.40;;
37781;SDS011;23621;50.878;4.584;2023-02-19T04:20:23;7.30;;;2.80;;
37781;SDS011;23621;50.878;4.584;2023-02-19T04:22:55;5.07;;;2.55;;
37781;SDS011;23621;50.878;4.584;2023-02-19T04:25:22;5.25;;;2.13;;
37781;SDS011;23621;50.878;4.584;2023-02-19T04:27:52;8.88;;;3.08;;
37781;SDS011;23621;50.878;4.584;2023-02-19T04:30:20;8.90;;;2.75;;
37781;SDS011;23621;50.878;4.584;2023-02-19T04:32:47;10.38;;;2.67;;
37781;SDS011;23621;50.878;4.584;2023-02-19T04:35:14;7.00;;;2.35;;
37781;SDS011;23621;50.878;4.584;2023-02-19T04:37:41;7.60;;;2.38;;
37781;SDS011;23621;50.878;4.584;2023-02-19T04:40:08;9.68;;;2.60;;
37781;SDS011;23621;50.878;4.584;2023-02-19T04:42:36;7.68;;;2.70;;
37781;SDS011;23621;50.878;4.584;2023-02-19T04:45:03;5.88;;;2.38;;
37781;SDS011;23621;50.878;4.584;2023-02-19T04:47:31;9.27;;;2.72;;
37781;SDS011;23621;50.878;4.584;2023-02-19T04:49:58;6.25;;;2.45;;
37781;SDS011;23621;50.878;4.584;2023-02-19T04:52:25;7.85;;;2.40;;
37781;SDS011;23621;50.878;4.584;2023-02-19T04:54:52;5.72;;;2.20;;
37781;SDS011;23621;50.878;4.584;2023-02-19T04:57:19;6.20;;;2.25;;
37781;SDS011;23621;50.878;4.584;2023-02-19T04:59:46;5.88;;;2.72;;
37781;SDS011;23621;50.878;4.584;2023-02-19T05:02:13;7.82;;;2.58;;
37781;SDS011;23621;50.878;4.584;2023-02-19T05:04:40;9.10;;;3.00;;
37781;SDS011;23621;50.878;4.584;2023-02-19T05:07:07;8.63;;;2.67;;
37781;SDS011;23621;50.878;4.584;2023-02-19T05:09:34;6.13;;;2.67;;
37781;SDS011;23621;50.878;4.584;2023-02-19T05:12:01;5.68;;;2.50;;
37781;SDS011;23621;50.878;4.584;2023-02-19T05:14:28;13.57;;;2.50;;
37781;SDS011;23621;50.878;4.584;2023-02-19T05:16:54;8.38;;;2.50;;
37781;SDS011;23621;50.878;4.584;2023-02-19T05:19:21;13.15;;;3.33;;
37781;SDS011;23621;50.878;4.584;2023-02-19T05:21:48;6.85;;;2.30;;
37781;SDS011;23621;50.878;4.584;2023-02-19T05:24:15;9.13;;;2.65;;
37781;SDS011;23621;50.878;4.584;2023-02-19T05:26:42;6.30;;;2.65;;
37781;SDS011;23621;50.878;4.584;2023-02-19T05:29:10;10.20;;;2.40;;
37781;SDS011;23621;50.878;4.584;2023-02-19T05:31:37;9.38;;;3.25;;
37781;SDS011;23621;50.878;4.584;2023-02-19T05:34:04;5.97;;;2.85;;
37781;SDS011;23621;50.878;4.584;2023-02-19T05:36:32;5.72;;;2.50;;
37781;SDS011;23621;50.878;4.584;2023-02-19T05:38:59;11.13;;;3.15;;
37781;SDS011;23621;50.878;4.584;2023-02-19T05:41:26;9.20;;;3.05;;
37781;SDS011;23621;50.878;4.584;2023-02-19T05:43:56;6.72;;;3.03;;
37781;SDS011;23621;50.878;4.584;2023-02-19T05:46:25;9.30;;;2.58;;
37781;SDS011;23621;50.878;4.584;2023-02-19T05:48:54;8.68;;;2.65;;
37781;SDS011;23621;50.878;4.584;2023-02-19T05:51:22;7.68;;;2.40;;
37781;SDS011;23621;50.878;4.584;2023-02-19T05:53:50;10.02;;;2.85;;
37781;SDS011;23621;50.878;4.584;2023-02-19T05:56:30;7.57;;;2.65;;
37781;SDS011;23621;50.878;4.584;2023-02-19T05:59:01;9.18;;;3.08;;
37781;SDS011;23621;50.878;4.584;2023-02-19T06:01:39;6.68;;;2.80;;
37781;SDS011;23621;50.878;4.584;2023-02-19T06:04:06;10.98;;;2.88;;
37781;SDS011;23621;50.878;4.584;2023-02-19T06:06:34;7.70;;;3.25;;
37781;SDS011;23621;50.878;4.584;2023-02-19T06:09:02;9.40;;;2.58;;
37781;SDS011;23621;50.878;4.584;2023-02-19T06:11:30;10.52;;;3.13;;
37781;SDS011;23621;50.878;4.584;2023-02-19T06:13:58;9.82;;;2.40;;
37781;SDS011;23621;50.878;4.584;2023-02-19T06:16:25;10.77;;;2.88;;
37781;SDS011;23621;50.878;4.584;2023-02-19T06:18:52;8.18;;;2.65;;
37781;SDS011;23621;50.878;4.584;2023-02-19T06:21:19;9.68;;;2.70;;
37781;SDS011;23621;50.878;4.584;2023-02-19T06:23:46;10.95;;;2.80;;
37781;SDS011;23621;50.878;4.584;2023-02-19T06:28:45;10.20;;;2.80;;
37781;SDS011;23621;50.878;4.584;2023-02-19T06:31:14;7.00;;;2.50;;
37781;SDS011;23621;50.878;4.584;2023-02-19T06:33:41;8.57;;;2.88;;
37781;SDS011;23621;50.878;4.584;2023-02-19T06:36:14;7.57;;;3.05;;
37781;SDS011;23621;50.878;4.584;2023-02-19T06:38:43;5.15;;;2.50;;
37781;SDS011;23621;50.878;4.584;2023-02-19T06:41:10;6.47;;;2.42;;
37781;SDS011;23621;50.878;4.584;2023-02-19T06:43:38;6.82;;;2.65;;
37781;SDS011;23621;50.878;4.584;2023-02-19T06:46:06;7.95;;;3.17;;
37781;SDS011;23621;50.878;4.584;2023-02-19T06:48:33;7.28;;;3.08;;
37781;SDS011;23621;50.878;4.584;2023-02-19T06:51:00;6.00;;;2.53;;
37781;SDS011;23621;50.878;4.584;2023-02-19T06:53:28;8.98;;;2.70;;
37781;SDS011;23621;50.878;4.584;2023-02-19T06:58:30;8.90;;;3.20;;
37781;SDS011;23621;50.878;4.584;2023-02-19T07:00:58;7.53;;;2.50;;
37781;SDS011;23621;50.878;4.584;2023-02-19T07:03:25;10.00;;;2.75;;
37781;SDS011;23621;50.878;4.584;2023-02-19T07:05:52;6.60;;;2.63;;
37781;SDS011;23621;50.878;4.584;2023-02-19T07:08:19;6.22;;;2.38;;
37781;SDS011;23621;50.878;4.584;2023-02-19T07:10:53;6.85;;;2.90;;
37781;SDS011;23621;50.878;4.584;2023-02-19T07:13:22;7.63;;;2.95;;
37781;SDS011;23621;50.878;4.584;2023-02-19T07:15:50;8.55;;;3.20;;
37781;SDS011;23621;50.878;4.584;2023-02-19T07:18:17;8.18;;;2.40;;
37781;SDS011;23621;50.878;4.584;2023-02-19T07:20:44;7.15;;;2.92;;
37781;SDS011;23621;50.878;4.584;2023-02-19T07:23:11;6.43;;;2.90;;
37781;SDS011;23621;50.878;4.584;2023-02-19T07:25:38;9.68;;;2.80;;
37781;SDS011;23621;50.878;4.584;2023-02-19T07:28:05;11.77;;;3.20;;
37781;SDS011;23621;50.878;4.584;2023-02-19T07:30:33;7.82;;;2.60;;
37781;SDS011;23621;50.878;4.584;2023-02-19T07:33:00;7.50;;;2.63;;
37781;SDS011;23621;50.878;4.584;2023-02-19T07:35:27;6.78;;;2.78;;
37781;SDS011;23621;50.878;4.584;2023-02-19T07:37:54;9.38;;;2.83;;
37781;SDS011;23621;50.878;4.584;2023-02-19T07:40:21;10.25;;;3.83;;
37781;SDS011;23621;50.878;4.584;2023-02-19T07:42:48;8.32;;;3.67;;
37781;SDS011;23621;50.878;4.584;2023-02-19T07:45:15;8.13;;;2.70;;
37781;SDS011;23621;50.878;4.584;2023-02-19T07:47:42;5.35;;;3.08;;
37781;SDS011;23621;50.878;4.584;2023-02-19T07:50:09;6.88;;;2.72;;
37781;SDS011;23621;50.878;4.584;2023-02-19T07:52:39;9.25;;;3.08;;
37781;SDS011;23621;50.878;4.584;2023-02-19T07:55:06;6.43;;;2.30;;
37781;SDS011;23621;50.878;4.584;2023-02-19T07:57:33;7.45;;;2.50;;
37781;SDS011;23621;50.878;4.584;2023-02-19T07:59:59;5.93;;;3.00;;
37781;SDS011;23621;50.878;4.584;2023-02-19T08:02:27;7.68;;;2.92;;
37781;SDS011;23621;50.878;4.584;2023-02-19T08:05:12;8.30;;;2.85;;
37781;SDS011;23621;50.878;4.584;2023-02-19T08:07:39;6.55;;;2.33;;
37781;SDS011;23621;50.878;4.584;2023-02-19T08:10:06;8.80;;;2.55;;
37781;SDS011;23621;50.878;4.584;2023-02-19T08:12:58;9.10;;;2.90;;
37781;SDS011;23621;50.878;4.584;2023-02-19T08:15:45;8.73;;;3.22;;
37781;SDS011;23621;50.878;4.584;2023-02-19T08:18:13;10.05;;;3.10;;
37781;SDS011;23621;50.878;4.584;2023-02-19T08:20:41;6.68;;;2.85;;
37781;SDS011;23621;50.878;4.584;2023-02-19T08:23:09;11.88;;;2.67;;
37781;SDS011;23621;50.878;4.584;2023-02-19T08:25:37;8.27;;;2.38;;
37781;SDS011;23621;50.878;4.584;2023-02-19T08:28:05;4.70;;;2.55;;
37781;SDS011;23621;50.878;4.584;2023-02-19T08:30:35;6.97;;;2.60;;
37781;SDS011;23621;50.878;4.584;2023-02-19T08:33:04;8.18;;;2.45;;
37781;SDS011;23621;50.878;4.584;2023-02-19T08:35:33;8.38;;;2.40;;
37781;SDS011;23621;50.878;4.584;2023-02-19T08:38:02;6.40;;;2.63;;
37781;SDS011;23621;50.878;4.584;2023-02-19T08:40:30;7.43;;;2.65;;
37781;SDS011;23621;50.878;4.584;2023-02-19T08:43:02;9.48;;;2.70;;
37781;SDS011;23621;50.878;4.584;2023-02-19T08:45:30;5.97;;;2.85;;
37781;SDS011;23621;50.878;4.584;2023-02-19T08:47:58;6.20;;;2.63;;
37781;SDS011;23621;50.878;4.584;2023-02-19T08:50:25;9.00;;;2.80;;
37781;SDS011;23621;50.878;4.584;2023-02-19T08:52:52;5.75;;;2.40;;
37781;SDS011;23621;50.878;4.584;2023-02-19T08:55:19;5.88;;;2.78;;
37781;SDS011;23621;50.878;4.584;2023-02-19T08:57:46;7.50;;;2.97;;
37781;SDS011;23621;50.878;4.584;2023-02-19T09:00:15;6.72;;;2.78;;
37781;SDS011;23621;50.878;4.584;2023-02-19T09:02:43;5.20;;;2.72;;
37781;SDS011;23621;50.878;4.584;2023-02-19T09:05:10;9.23;;;2.60;;
37781;SDS011;23621;50.878;4.584;2023-02-19T09:07:37;7.68;;;2.67;;
37781;SDS011;23621;50.878;4.584;2023-02-19T09:10:05;5.22;;;2.40;;
37781;SDS011;23621;50.878;4.584;2023-02-19T09:12:33;4.82;;;2.40;;
37781;SDS011;23621;50.878;4.584;2023-02-19T09:15:00;6.18;;;2.20;;
37781;SDS011;23621;50.878;4.584;2023-02-19T09:17:27;7.03;;;2.22;;
37781;SDS011;23621;50.878;4.584;2023-02-19T09:19:54;9.48;;;3.08;;
37781;SDS011;23621;50.878;4.584;2023-02-19T09:22:21;7.93;;;3.63;;
37781;SDS011;23621;50.878;4.584;2023-02-19T09:24:48;5.63;;;2.70;;
37781;SDS011;23621;50.878;4.584;2023-02-19T09:27:16;7.68;;;2.58;;
37781;SDS011;23621;50.878;4.584;2023-02-19T09:29:45;7.93;;;2.55;;
37781;SDS011;23621;50.878;4.584;2023-02-19T09:32:12;5.80;;;2.22;;
37781;SDS011;23621;50.878;4.584;2023-02-19T09:34:39;4.95;;;2.40;;
37781;SDS011;23621;50.878;4.584;2023-02-19T09:37:07;8.13;;;2.80;;
37781;SDS011;23621;50.878;4.584;2023-02-19T09:39:34;5.07;;;2.50;;
37781;SDS011;23621;50.878;4.584;2023-02-19T09:42:03;6.50;;;2.40;;
37781;SDS011;23621;50.878;4.584;2023-02-19T09:44:39;5.78;;;2.55;;
37781;SDS011;23621;50.878;4.584;2023-02-19T09:47:52;8.43;;;2.83;;
37781;SDS011;23621;50.878;4.584;2023-02-19T09:50:05;8.55;;;3.33;;
37781;SDS011;23621;50.878;4.584;2023-02-19T09:55:30;8.18;;;2.90;;
37781;SDS011;23621;50.878;4.584;2023-02-19T09:58:16;4.07;;;2.35;;
37781;SDS011;23621;50.878;4.584;2023-02-19T10:00:53;6.88;;;2.97;;
37781;SDS011;23621;50.878;4.584;2023-02-19T10:06:02;6.43;;;2.88;;
37781;SDS011;23621;50.878;4.584;2023-02-19T10:08:36;5.38;;;3.05;;
37781;SDS011;23621;50.878;4.584;2023-02-19T10:11:05;6.78;;;3.15;;
37781;SDS011;23621;50.878;4.584;2023-02-19T10:13:41;6.47;;;2.67;;
37781;SDS011;23621;50.878;4.584;2023-02-19T10:16:16;9.90;;;3.17;;
37781;SDS011;23621;50.878;4.584;2023-02-19T10:18:47;6.45;;;2.83;;
37781;SDS011;23621;50.878;4.584;2023-02-19T10:21:19;4.75;;;2.97;;
37781;SDS011;23621;50.878;4.584;2023-02-19T10:23:50;8.25;;;2.97;;
37781;SDS011;23621;50.878;4.584;2023-02-19T10:26:21;7.65;;;3.05;;
37781;SDS011;23621;50.878;4.584;2023-02-19T10:28:49;6.72;;;3.00;;
37781;SDS011;23621;50.878;4.584;2023-02-19T10:31:17;7.00;;;2.83;;
37781;SDS011;23621;50.878;4.584;2023-02-19T10:33:47;6.15;;;3.00;;
37781;SDS011;23621;50.878;4.584;2023-02-19T10:36:46;7.78;;;3.22;;
37781;SDS011;23621;50.878;4.584;2023-02-19T10:41:56;10.05;;;3.47;;
37781;SDS011;23621;50.878;4.584;2023-02-19T10:44:24;6.72;;;2.72;;
37781;SDS011;23621;50.878;4.584;2023-02-19T10:46:54;6.80;;;3.08;;
37781;SDS011;23621;50.878;4.584;2023-02-19T10:49:31;4.63;;;2.88;;
37781;SDS011;23621;50.878;4.584;2023-02-19T10:52:13;6.68;;;3.45;;
37781;SDS011;23621;50.878;4.584;2023-02-19T10:57:56;4.75;;;3.08;;
37781;SDS011;23621;50.878;4.584;2023-02-19T11:00:24;6.38;;;3.03;;
37781;SDS011;23621;50.878;4.584;2023-02-19T11:03:17;5.88;;;2.95;;
37781;SDS011;23621;50.878;4.584;2023-02-19T11:05:50;5.28;;;2.88;;
37781;SDS011;23621;50.878;4.584;2023-02-19T11:08:29;7.28;;;3.05;;
37781;SDS011;23621;50.878;4.584;2023-02-19T11:11:20;5.07;;;2.88;;
37781;SDS011;23621;50.878;4.584;2023-02-19T11:13:54;4.35;;;2.88;;
37781;SDS011;23621;50.878;4.584;2023-02-19T11:16:23;5.93;;;2.42;;
37781;SDS011;23621;50.878;4.584;2023-02-19T11:19:02;6.78;;;3.88;;
37781;SDS011;23621;50.878;4.584;2023-02-19T11:21:29;8.55;;;3.60;;
37781;SDS011;23621;50.878;4.584;2023-02-19T11:23:59;17.58;;;13.90;;
37781;SDS011;23621;50.878;4.584;2023-02-19T11:26:30;5.18;;;3.33;;
37781;SDS011;23621;50.878;4.584;2023-02-19T11:29:16;7.07;;;3.33;;
37781;SDS011;23621;50.878;4.584;2023-02-19T11:31:48;7.25;;;3.28;;
37781;SDS011;23621;50.878;4.584;2023-02-19T11:37:08;4.95;;;2.78;;
37781;SDS011;23621;50.878;4.584;2023-02-19T11:39:47;5.60;;;2.65;;
37781;SDS011;23621;50.878;4.584;2023-02-19T11:42:39;6.32;;;3.28;;
37781;SDS011;23621;50.878;4.584;2023-02-19T11:45:37;5.32;;;2.70;;
37781;SDS011;23621;50.878;4.584;2023-02-19T11:53:58;4.45;;;2.85;;
37781;SDS011;23621;50.878;4.584;2023-02-19T11:56:35;6.80;;;3.03;;
37781;SDS011;23621;50.878;4.584;2023-02-19T11:59:07;4.88;;;2.92;;
37781;SDS011;23621;50.878;4.584;2023-02-19T12:01:49;7.00;;;2.90;;
37781;SDS011;23621;50.878;4.584;2023-02-19T12:07:16;4.03;;;3.20;;
37781;SDS011;23621;50.878;4.584;2023-02-19T12:13:10;4.55;;;3.20;;
37781;SDS011;23621;50.878;4.584;2023-02-19T12:21:13;6.70;;;3.03;;
37781;SDS011;23621;50.878;4.584;2023-02-19T12:35:09;10.30;;;6.40;;
37781;SDS011;23621;50.878;4.584;2023-02-19T12:38:15;7.57;;;3.45;;
37781;SDS011;23621;50.878;4.584;2023-02-19T12:43:19;4.53;;;3.67;;
37781;SDS011;23621;50.878;4.584;2023-02-19T12:48:44;5.82;;;3.63;;
37781;SDS011;23621;50.878;4.584;2023-02-19T12:51:26;4.90;;;3.20;;
37781;SDS011;23621;50.878;4.584;2023-02-19T12:56:32;4.10;;;3.15;;
37781;SDS011;23621;50.878;4.584;2023-02-19T12:59:25;5.82;;;2.85;;
37781;SDS011;23621;50.878;4.584;2023-02-19T13:05:21;2.85;;;2.60;;
37781;SDS011;23621;50.878;4.584;2023-02-19T13:10:42;5.20;;;2.60;;
37781;SDS011;23621;50.878;4.584;2023-02-19T13:13:35;6.65;;;2.72;;
37781;SDS011;23621;50.878;4.584;2023-02-19T13:16:13;4.72;;;2.90;;
37781;SDS011;23621;50.878;4.584;2023-02-19T13:21:25;3.28;;;2.47;;
37781;SDS011;23621;50.878;4.584;2023-02-19T13:24:36;5.82;;;3.00;;
37781;SDS011;23621;50.878;4.584;2023-02-19T13:27:19;6.40;;;2.83;;
37781;SDS011;23621;50.878;4.584;2023-02-19T13:36:11;4.07;;;2.92;;
37781;SDS011;23621;50.878;4.584;2023-02-19T13:38:43;6.63;;;3.00;;
37781;SDS011;23621;50.878;4.584;2023-02-19T13:41:48;6.45;;;2.85;;
37781;SDS011;23621;50.878;4.584;2023-02-19T13:44:24;6.93;;;2.90;;
37781;SDS011;23621;50.878;4.584;2023-02-19T13:46:59;4.13;;;2.92;;
37781;SDS011;23621;50.878;4.584;2023-02-19T13:52:02;5.47;;;3.17;;
37781;SDS011;23621;50.878;4.584;2023-02-19T14:01:03;5.53;;;2.97;;
37781;SDS011;23621;50.878;4.584;2023-02-19T14:06:06;4.90;;;3.38;;
37781;SDS011;23621;50.878;4.584;2023-02-19T14:08:47;9.23;;;3.10;;
37781;SDS011;23621;50.878;4.584;2023-02-19T14:11:18;4.00;;;2.90;;
37781;SDS011;23621;50.878;4.584;2023-02-19T14:33:28;3.08;;;2.72;;
37781;SDS011;23621;50.878;4.584;2023-02-19T14:36:13;4.57;;;2.65;;
37781;SDS011;23621;50.878;4.584;2023-02-19T14:39:02;3.10;;;2.75;;
37781;SDS011;23621;50.878;4.584;2023-02-19T14:41:38;6.38;;;2.80;;
37781;SDS011;23621;50.878;4.584;2023-02-19T14:44:28;3.60;;;2.75;;
37781;SDS011;23621;50.878;4.584;2023-02-19T14:46:57;4.40;;;2.55;;
37781;SDS011;23621;50.878;4.584;2023-02-19T14:49:36;3.45;;;2.80;;
37781;SDS011;23621;50.878;4.584;2023-02-19T14:52:26;2.95;;;2.33;;
37781;SDS011;23621;50.878;4.584;2023-02-19T14:54:59;4.50;;;2.83;;
37781;SDS011;23621;50.878;4.584;2023-02-19T14:57:35;3.10;;;2.60;;
37781;SDS011;23621;50.878;4.584;2023-02-19T15:02:50;4.10;;;2.53;;
37781;SDS011;23621;50.878;4.584;2023-02-19T15:05:25;2.35;;;2.15;;
37781;SDS011;23621;50.878;4.584;2023-02-19T15:07:55;2.75;;;2.10;;
37781;SDS011;23621;50.878;4.584;2023-02-19T15:10:25;2.60;;;2.28;;
37781;SDS011;23621;50.878;4.584;2023-02-19T15:13:04;3.33;;;2.28;;
37781;SDS011;23621;50.878;4.584;2023-02-19T15:15:37;3.90;;;2.47;;
37781;SDS011;23621;50.878;4.584;2023-02-19T15:18:13;5.72;;;2.72;;
37781;SDS011;23621;50.878;4.584;2023-02-19T15:20:49;3.03;;;2.45;;
37781;SDS011;23621;50.878;4.584;2023-02-19T15:23:23;2.45;;;2.20;;
37781;SDS011;23621;50.878;4.584;2023-02-19T15:25:51;4.45;;;2.50;;
37781;SDS011;23621;50.878;4.584;2023-02-19T15:33:25;2.40;;;2.20;;
37781;SDS011;23621;50.878;4.584;2023-02-19T15:35:57;1.90;;;1.80;;
37781;SDS011;23621;50.878;4.584;2023-02-19T15:38:26;2.45;;;1.50;;
37781;SDS011;23621;50.878;4.584;2023-02-19T15:40:54;2.30;;;2.03;;
37781;SDS011;23621;50.878;4.584;2023-02-19T15:46:17;2.33;;;2.13;;
37781;SDS011;23621;50.878;4.584;2023-02-19T15:49:06;2.17;;;1.98;;
37781;SDS011;23621;50.878;4.584;2023-02-19T15:51:44;3.22;;;2.63;;
37781;SDS011;23621;50.878;4.584;2023-02-19T15:54:25;3.25;;;2.10;;
37781;SDS011;23621;50.878;4.584;2023-02-19T15:56:58;3.28;;;2.58;;
37781;SDS011;23621;50.878;4.584;2023-02-19T15:59:38;2.65;;;2.20;;
37781;SDS011;23621;50.878;4.584;2023-02-19T16:02:12;3.00;;;2.30;;
37781;SDS011;23621;50.878;4.584;2023-02-19T16:04:41;3.17;;;2.08;;
37781;SDS011;23621;50.878;4.584;2023-02-19T16:07:19;2.95;;;2.28;;
37781;SDS011;23621;50.878;4.584;2023-02-19T16:10:04;2.75;;;2.50;;
37781;SDS011;23621;50.878;4.584;2023-02-19T16:12:41;3.15;;;2.28;;
37781;SDS011;23621;50.878;4.584;2023-02-19T16:15:12;2.55;;;2.35;;
37781;SDS011;23621;50.878;4.584;2023-02-19T16:17:43;2.88;;;2.65;;
37781;SDS011;23621;50.878;4.584;2023-02-19T16:20:27;3.25;;;2.65;;
37781;SDS011;23621;50.878;4.584;2023-02-19T16:22:56;3.28;;;2.80;;
37781;SDS011;23621;50.878;4.584;2023-02-19T16:28:07;4.25;;;2.92;;
37781;SDS011;23621;50.878;4.584;2023-02-19T16:30:44;3.50;;;3.20;;
37781;SDS011;23621;50.878;4.584;2023-02-19T16:38:58;4.80;;;3.60;;
37781;SDS011;23621;50.878;4.584;2023-02-19T16:41:29;4.05;;;3.42;;
37781;SDS011;23621;50.878;4.584;2023-02-19T16:43:56;6.18;;;3.58;;
37781;SDS011;23621;50.878;4.584;2023-02-19T16:46:23;4.93;;;3.78;;
37781;SDS011;23621;50.878;4.584;2023-02-19T16:48:50;5.47;;;3.85;;
37781;SDS011;23621;50.878;4.584;2023-02-19T16:51:23;4.72;;;3.60;;
37781;SDS011;23621;50.878;4.584;2023-02-19T16:53:51;4.82;;;4.00;;
37781;SDS011;23621;50.878;4.584;2023-02-19T16:56:19;6.63;;;3.65;;
37781;SDS011;23621;50.878;4.584;2023-02-19T16:58:48;5.15;;;3.03;;
37781;SDS011;23621;50.878;4.584;2023-02-19T17:01:16;4.22;;;3.30;;
37781;SDS011;23621;50.878;4.584;2023-02-19T17:03:43;4.90;;;3.80;;
37781;SDS011;23621;50.878;4.584;2023-02-19T17:06:12;6.47;;;3.80;;
37781;SDS011;23621;50.878;4.584;2023-02-19T17:08:41;4.05;;;3.58;;
37781;SDS011;23621;50.878;4.584;2023-02-19T17:11:10;4.07;;;3.20;;
37781;SDS011;23621;50.878;4.584;2023-02-19T17:13:39;6.72;;;3.95;;
37781;SDS011;23621;50.878;4.584;2023-02-19T17:16:09;3.90;;;3.50;;
37781;SDS011;23621;50.878;4.584;2023-02-19T17:18:42;4.15;;;3.47;;
37781;SDS011;23621;50.878;4.584;2023-02-19T17:21:16;3.85;;;3.50;;
37781;SDS011;23621;50.878;4.584;2023-02-19T17:23:48;3.63;;;3.33;;
37781;SDS011;23621;50.878;4.584;2023-02-19T17:26:16;4.30;;;3.90;;
37781;SDS011;23621;50.878;4.584;2023-02-19T17:28:57;5.57;;;3.78;;
37781;SDS011;23621;50.878;4.584;2023-02-19T17:31:25;6.88;;;3.65;;
37781;SDS011;23621;50.878;4.584;2023-02-19T17:33:52;6.38;;;4.10;;
37781;SDS011;23621;50.878;4.584;2023-02-19T17:36:21;6.35;;;4.15;;
37781;SDS011;23621;50.878;4.584;2023-02-19T17:38:53;8.68;;;4.90;;
37781;SDS011;23621;50.878;4.584;2023-02-19T17:41:20;5.28;;;4.10;;
37781;SDS011;23621;50.878;4.584;2023-02-19T17:43:47;4.57;;;4.13;;
37781;SDS011;23621;50.878;4.584;2023-02-19T17:46:16;6.55;;;4.82;;
37781;SDS011;23621;50.878;4.584;2023-02-19T17:48:44;4.90;;;4.13;;
37781;SDS011;23621;50.878;4.584;2023-02-19T17:51:11;5.88;;;4.22;;
37781;SDS011;23621;50.878;4.584;2023-02-19T17:53:39;4.90;;;4.40;;